Terminal Aerodrome Forecast
Issued by NWS

Home | Current Version | Previous Version | Text Only | Print | Product List | Glossary On
Versions: 1 2 3 4 5 6 7 8 9 10 11 12
000
FTUS45 KGGW 232320
TAFOLF
TAF
KOLF 232320Z 2400/2424 31020G31KT P6SM FEW080
     FM240100 32016KT P6SM FEW090
     FM240300 31005KT P6SM FEW240
     FM242100 28009KT P6SM FEW110=

USA.gov is the U.S. government's official web portal to all federal, state and local government web resources and services.